Time;durP1;ratioP1;P1;durP2;ratioP2;P2;SDS_P1;SDS_P2;PMS_P1;PMS_P2;Temp;Humidity;BMP_temperature;BMP_pressure;BME280_temperature;BME280_humidity;BME280_pressure;Samples;Min_cycle;Max_cycle;Signal;HPM_P1;HPM_P2
2023/06/01 00:00:00;;;;;;;15.88;7.85;;;;;;;19.51;66.88;100759.00;5007332;28;20471;-84
2023/06/01 00:02:25;;;;;;;14.63;7.95;;;;;;;19.44;66.64;100745.25;5025340;28;20069;-84
2023/06/01 00:04:52;;;;;;;22.95;7.68;;;;;;;19.54;66.60;100764.97;5017573;28;20486;-85
2023/06/01 00:07:17;;;;;;;19.20;8.80;;;;;;;19.47;66.71;100750.38;5020124;28;20026;-85
2023/06/01 00:09:43;;;;;;;18.83;8.25;;;;;;;19.43;66.79;100740.84;5027183;28;20060;-85
2023/06/01 00:12:09;;;;;;;13.35;7.82;;;;;;;19.46;66.80;100750.53;5014620;28;20069;-86
2023/06/01 00:14:35;;;;;;;19.35;8.23;;;;;;;19.45;66.94;100746.94;5012494;28;20049;-85
2023/06/01 00:17:02;;;;;;;14.10;7.70;;;;;;;19.47;66.79;100753.09;5013019;28;20034;-85
2023/06/01 00:19:28;;;;;;;18.48;8.43;;;;;;;19.32;66.64;100727.56;5011426;28;20045;-87
2023/06/01 00:21:55;;;;;;;18.17;7.75;;;;;;;19.31;66.48;100742.22;5011117;28;20362;-85
2023/06/01 00:24:21;;;;;;;14.85;7.72;;;;;;;19.28;66.24;100734.41;5012266;28;20036;-85
2023/06/01 00:26:47;;;;;;;14.50;8.27;;;;;;;19.25;66.15;100740.22;5011838;28;20037;-85
2023/06/01 00:29:13;;;;;;;17.70;10.23;;;;;;;19.24;66.36;100745.81;5012002;28;20029;-86
2023/06/01 00:31:39;;;;;;;20.92;10.43;;;;;;;19.24;66.57;100757.59;5012857;28;20426;-85
2023/06/01 00:34:04;;;;;;;21.15;9.73;;;;;;;19.18;66.78;100747.41;5017124;28;20033;-85
2023/06/01 00:36:31;;;;;;;19.42;9.80;;;;;;;19.13;67.02;100744.38;5021596;28;20034;-86
2023/06/01 00:39:01;;;;;;;17.17;8.93;;;;;;;18.97;67.11;100728.06;5027288;28;20061;-89
2023/06/01 00:41:28;;;;;;;18.45;10.35;;;;;;;18.98;67.38;100736.09;5034794;28;20030;-86
2023/06/01 00:43:53;;;;;;;21.65;11.43;;;;;;;19.03;67.47;100741.00;5028705;28;20041;-85
2023/06/01 00:46:19;;;;;;;29.35;10.88;;;;;;;19.02;67.18;100737.41;5019922;28;20030;-85
2023/06/01 00:48:45;;;;;;;20.35;10.60;;;;;;;18.98;66.87;100729.78;5019396;28;20044;-85
2023/06/01 00:51:12;;;;;;;17.00;9.50;;;;;;;18.85;66.92;100724.03;5017786;28;20018;-85
2023/06/01 00:53:38;;;;;;;18.30;10.00;;;;;;;18.90;66.82;100740.69;5011926;28;20030;-85
2023/06/01 00:56:03;;;;;;;19.35;8.80;;;;;;;18.94;66.91;100747.50;5012462;28;20636;-85
2023/06/01 00:58:30;;;;;;;17.27;8.50;;;;;;;18.81;67.36;100739.88;5017867;28;20034;-85
2023/06/01 01:00:55;;;;;;;15.95;9.48;;;;;;;18.79;67.48;100746.53;5012185;28;20100;-85
2023/06/01 01:03:21;;;;;;;18.98;10.15;;;;;;;18.86;67.37;100752.97;5011974;28;20461;-87
2023/06/01 01:05:47;;;;;;;19.13;8.82;;;;;;;18.81;67.55;100755.38;5028592;28;20049;-87
2023/06/01 01:08:36;;;;;;;18.08;10.38;;;;;;;18.83;67.75;100753.34;5029279;28;20057;-85
2023/06/01 01:11:20;;;;;;;17.25;8.52;;;;;;;18.75;67.71;100750.63;4993525;28;20022;-85
2023/06/01 01:14:01;;;;;;;15.73;8.43;;;;;;;18.79;67.52;100738.34;5008944;28;20461;-85
2023/06/01 01:16:46;;;;;;;19.38;8.52;;;;;;;18.75;67.60;100728.81;5010644;28;20161;-85
2023/06/01 01:19:27;;;;;;;13.07;8.18;;;;;;;18.63;67.72;100711.13;5009782;28;20084;-86
2023/06/01 01:22:26;;;;;;;18.47;9.77;;;;;;;18.84;67.95;100755.88;5009955;28;20034;-86
2023/06/01 01:25:10;;;;;;;22.17;9.40;;;;;;;18.84;68.16;100749.56;4974492;28;20034;-86
2023/06/01 01:28:05;;;;;;;13.77;9.73;;;;;;;18.73;68.08;100729.00;5009342;28;20102;-85
2023/06/01 01:30:36;;;;;;;15.75;8.20;;;;;;;18.80;68.00;100746.38;5009782;28;20026;-85
2023/06/01 01:33:03;;;;;;;15.15;8.98;;;;;;;18.84;68.00;100752.28;5009324;28;20066;-85
2023/06/01 01:35:29;;;;;;;18.05;9.75;;;;;;;18.79;67.93;100741.94;5014065;28;20029;-85
2023/06/01 01:37:55;;;;;;;27.27;9.43;;;;;;;18.71;67.89;100749.28;5013578;28;20136;-86
2023/06/01 01:40:22;;;;;;;18.27;10.32;;;;;;;18.70;67.74;100739.41;5013793;28;20072;-84
2023/06/01 01:42:50;;;;;;;19.48;11.05;;;;;;;18.74;68.21;100749.78;5013658;28;20490;-86
2023/06/01 01:45:16;;;;;;;31.30;10.85;;;;;;;18.68;68.10;100747.75;5013638;28;20018;-85
2023/06/01 01:48:15;;;;;;;22.17;9.40;;;;;;;18.73;68.20;100753.53;5013530;28;20032;-86
2023/06/01 01:50:53;;;;;;;20.55;10.23;;;;;;;18.63;68.42;100749.28;5013185;28;20026;-85
2023/06/01 01:53:23;;;;;;;21.08;11.10;;;;;;;18.60;68.66;100761.38;5013926;28;20041;-85
2023/06/01 01:55:50;;;;;;;30.70;12.00;;;;;;;18.55;69.00;100746.59;5015634;28;20022;-85
2023/06/01 01:58:17;;;;;;;23.40;11.07;;;;;;;18.40;69.09;100738.25;5016606;28;20034;-85
2023/06/01 02:00:43;;;;;;;26.00;11.95;;;;;;;18.35;69.38;100736.03;5018741;28;20022;-84
2023/06/01 02:03:16;;;;;;;39.58;10.88;;;;;;;18.38;69.51;100743.00;5033755;28;20089;-82
2023/06/01 02:05:42;;;;;;;30.40;12.00;;;;;;;18.50;69.75;100763.44;5020146;28;20426;-84
2023/06/01 02:08:08;;;;;;;20.17;11.68;;;;;;;18.51;69.66;100761.56;5013768;28;20069;-86
2023/06/01 02:10:33;;;;;;;33.58;12.65;;;;;;;18.46;69.69;100762.91;5013619;28;20026;-85
2023/06/01 02:12:59;;;;;;;30.17;13.18;;;;;;;18.26;69.93;100750.66;5013717;28;20481;-86
2023/06/01 02:15:25;;;;;;;37.28;15.13;;;;;;;18.30;70.05;100760.22;5014232;28;20042;-85
2023/06/01 02:17:51;;;;;;;33.15;17.08;;;;;;;18.25;69.71;100745.41;5013850;28;20050;-83
2023/06/01 02:20:17;;;;;;;26.90;17.10;;;;;;;18.20;69.68;100737.75;5014161;28;20021;-86
2023/06/01 02:22:42;;;;;;;33.25;16.60;;;;;;;18.32;69.06;100752.72;4997419;28;20043;-86
2023/06/01 02:25:08;;;;;;;28.08;15.45;;;;;;;18.30;68.82;100759.34;5014153;28;20072;-87
2023/06/01 02:27:34;;;;;;;22.52;14.50;;;;;;;18.11;68.35;100741.50;5019407;28;20025;-86
2023/06/01 02:29:59;;;;;;;35.90;15.63;;;;;;;18.15;67.97;100750.16;5014246;28;20034;-85
2023/06/01 02:32:26;;;;;;;23.60;14.02;;;;;;;18.17;67.20;100765.31;4996353;28;20057;-87
2023/06/01 02:34:51;;;;;;;31.58;15.50;;;;;;;18.11;66.32;100755.09;5013869;28;20061;-85
2023/06/01 02:37:17;;;;;;;77.68;19.33;;;;;;;18.10;65.82;100752.56;5014203;28;20030;-86
2023/06/01 02:39:42;;;;;;;40.17;15.10;;;;;;;18.15;65.92;100758.34;5013976;28;20026;-86
2023/06/01 02:42:08;;;;;;;23.85;13.05;;;;;;;18.29;65.42;100761.22;4996289;28;20033;-84
2023/06/01 02:44:33;;;;;;;28.60;13.57;;;;;;;18.17;65.34;100746.25;5013250;28;20050;-86
2023/06/01 02:46:59;;;;;;;40.88;13.60;;;;;;;18.22;65.07;100752.06;5014524;28;20049;-88
2023/06/01 02:49:24;;;;;;;19.05;12.80;;;;;;;18.25;64.85;100769.91;5017669;28;20038;-87
2023/06/01 02:51:50;;;;;;;28.38;12.15;;;;;;;18.29;64.87;100772.09;5014323;28;20026;-86
2023/06/01 02:54:15;;;;;;;33.45;12.73;;;;;;;18.31;64.67;100767.38;5014894;28;20044;-85
2023/06/01 02:56:40;;;;;;;27.05;12.02;;;;;;;18.31;64.52;100774.69;5014024;28;20568;-86
2023/06/01 02:59:06;;;;;;;23.38;15.00;;;;;;;18.25;64.04;100749.00;5027024;28;20037;-86
2023/06/01 03:01:35;;;;;;;30.02;14.52;;;;;;;18.25;64.09;100759.03;5014917;28;20041;-85
2023/06/01 03:04:03;;;;;;;24.55;14.77;;;;;;;18.36;64.09;100767.69;5017724;28;20037;-84
2023/06/01 03:06:31;;;;;;;31.85;15.82;;;;;;;18.34;63.68;100763.44;5011335;28;20037;-85
2023/06/01 03:08:58;;;;;;;27.25;16.85;;;;;;;18.41;63.54;100780.78;5012563;28;20029;-84
2023/06/01 03:11:23;;;;;;;31.75;17.08;;;;;;;18.37;63.46;100763.09;4995103;28;20058;-87
2023/06/01 03:13:50;;;;;;;28.63;16.23;;;;;;;18.32;63.05;100744.53;5012482;28;20072;-87
2023/06/01 03:16:16;;;;;;;37.88;15.73;;;;;;;18.37;63.36;100758.50;5012246;28;20026;-86
2023/06/01 03:18:42;;;;;;;35.38;18.70;;;;;;;18.52;63.08;100768.72;4990167;28;20039;-84
2023/06/01 03:21:07;;;;;;;40.78;16.35;;;;;;;18.60;62.90;100780.44;4990831;28;20049;-87
2023/06/01 03:23:33;;;;;;;25.85;16.17;;;;;;;18.65;62.89;100779.94;4990376;28;20092;-85
2023/06/01 03:25:59;;;;;;;33.15;17.77;;;;;;;18.59;63.20;100777.91;4990646;28;20560;-87
2023/06/01 03:28:24;;;;;;;40.25;19.63;;;;;;;18.63;63.50;100776.53;4990872;28;20101;-85
2023/06/01 03:30:51;;;;;;;39.45;16.10;;;;;;;18.63;64.04;100779.25;4991040;28;20070;-86
2023/06/01 03:33:16;;;;;;;40.75;20.85;;;;;;;18.60;64.24;100777.72;4990228;28;20038;-88
2023/06/01 03:35:44;;;;;;;42.72;20.63;;;;;;;18.60;64.47;100768.69;4989891;28;20042;-85
2023/06/01 03:38:10;;;;;;;43.58;21.40;;;;;;;18.61;64.63;100764.97;4990415;28;20042;-86
2023/06/01 03:40:35;;;;;;;46.90;24.65;;;;;;;18.78;64.64;100792.00;4989883;28;20057;-85
2023/06/01 03:43:02;;;;;;;46.63;23.90;;;;;;;18.74;64.91;100765.28;4989613;28;20228;-86
2023/06/01 03:45:27;;;;;;;50.10;25.63;;;;;;;18.89;65.01;100779.88;4989707;28;20042;-85
2023/06/01 03:47:53;;;;;;;86.82;27.63;;;;;;;18.79;65.09;100765.59;4990615;28;20042;-84
2023/06/01 03:50:18;;;;;;;55.55;28.30;;;;;;;18.95;64.88;100781.91;5008330;28;20494;-85
2023/06/01 03:52:44;;;;;;;71.88;30.55;;;;;;;19.01;65.09;100778.50;5013751;28;20038;-85
2023/06/01 03:55:13;;;;;;;70.95;33.05;;;;;;;19.12;65.00;100786.28;5018688;28;20061;-85
2023/06/01 03:57:38;;;;;;;66.57;37.28;;;;;;;19.14;64.87;100784.25;5010939;28;20068;-85
2023/06/01 04:00:17;;;;;;;66.90;37.20;;;;;;;19.12;64.83;100767.19;5024664;28;20406;-87
2023/06/01 04:02:46;;;;;;;61.47;35.45;;;;;;;19.25;64.67;100786.56;5011503;28;20030;-85
2023/06/01 04:05:16;;;;;;;61.53;35.08;;;;;;;19.23;64.28;100776.88;5011536;28;20052;-85
2023/06/01 04:07:46;;;;;;;52.10;32.72;;;;;;;19.32;63.90;100782.13;5013226;28;20113;-86
2023/06/01 04:10:13;;;;;;;69.13;33.35;;;;;;;19.41;63.94;100791.16;5011882;28;20108;-86
2023/06/01 04:12:43;;;;;;;61.08;32.60;;;;;;;19.47;63.69;100791.28;5011637;28;20083;-86
2023/06/01 04:15:13;;;;;;;58.83;33.75;;;;;;;19.43;63.59;100789.94;5013192;28;20026;-85
2023/06/01 04:17:40;;;;;;;63.58;32.17;;;;;;;19.45;63.10;100776.09;5012762;28;20026;-87
2023/06/01 04:20:09;;;;;;;96.90;34.03;;;;;;;19.67;62.96;100790.81;5012773;28;20028;-83
2023/06/01 04:22:35;;;;;;;63.53;31.88;;;;;;;19.80;62.99;100796.53;5011163;28;20030;-82
2023/06/01 04:25:01;;;;;;;83.80;31.35;;;;;;;19.84;62.46;100786.97;5011291;28;20034;-81
2023/06/01 04:27:27;;;;;;;69.95;31.63;;;;;;;19.97;61.74;100796.25;5011352;28;20026;-83
2023/06/01 04:29:53;;;;;;;104.97;33.45;;;;;;;20.00;61.50;100784.09;5017531;28;20661;-81
2023/06/01 04:32:21;;;;;;;53.65;29.63;;;;;;;20.22;61.31;100802.38;5015438;28;20032;-83
2023/06/01 04:34:49;;;;;;;65.43;30.65;;;;;;;20.24;61.15;100804.94;5011262;28;20030;-82
2023/06/01 04:37:19;;;;;;;52.63;29.55;;;;;;;20.30;60.71;100783.25;5012207;28;20029;-83
2023/06/01 04:39:48;;;;;;;49.08;27.42;;;;;;;20.38;60.36;100785.03;4992531;28;20022;-81
2023/06/01 04:42:16;;;;;;;105.05;32.85;;;;;;;20.57;59.95;100801.78;5011745;28;20567;-81
2023/06/01 04:44:42;;;;;;;59.50;27.15;;;;;;;20.53;59.13;100772.25;5010562;28;20065;-82
2023/06/01 04:47:08;;;;;;;50.78;24.63;;;;;;;20.54;58.82;100757.56;5011832;28;20026;-81
2023/06/01 04:49:34;;;;;;;53.85;26.00;;;;;;;20.64;58.53;100772.66;5028406;28;20020;-91
2023/06/01 04:52:00;;;;;;;81.68;27.48;;;;;;;20.79;58.26;100766.38;5012053;28;20113;-92
2023/06/01 04:54:25;;;;;;;54.42;24.23;;;;;;;20.97;57.78;100775.06;5013246;28;20041;-79
2023/06/01 04:56:51;;;;;;;46.58;25.05;;;;;;;21.19;57.74;100796.03;5016429;28;20097;-81
2023/06/01 04:59:16;;;;;;;67.03;25.00;;;;;;;21.25;57.52;100800.75;5010085;28;20405;-79
2023/06/01 05:01:42;;;;;;;41.75;23.73;;;;;;;21.01;57.57;100754.47;5015874;28;20443;-92
2023/06/01 05:04:08;;;;;;;66.47;23.52;;;;;;;21.28;57.27;100804.97;5007197;28;20064;-91
2023/06/01 05:06:34;;;;;;;36.47;20.80;;;;;;;21.24;57.33;100781.75;4996289;28;20037;-89
2023/06/01 05:08:59;;;;;;;48.25;21.45;;;;;;;21.28;56.34;100789.41;5034021;28;20029;-88
2023/06/01 05:11:25;;;;;;;57.05;21.67;;;;;;;21.25;55.54;100778.00;5033831;28;20030;-86
2023/06/01 05:13:52;;;;;;;54.63;17.83;;;;;;;21.32;55.54;100779.75;5030584;28;20030;-83
2023/06/01 05:16:17;;;;;;;45.38;18.55;;;;;;;21.31;55.20;100785.44;5020303;28;20482;-91
2023/06/01 05:18:43;;;;;;;39.40;17.67;;;;;;;21.33;54.81;100786.94;5018109;28;20049;-85
2023/06/01 05:21:08;;;;;;;56.00;19.23;;;;;;;21.27;55.04;100774.03;5023384;28;20018;-88
2023/06/01 05:23:34;;;;;;;50.53;19.02;;;;;;;21.45;55.42;100795.50;5012196;28;20022;-85
2023/06/01 05:26:02;;;;;;;56.30;18.23;;;;;;;21.59;55.16;100792.75;5009585;28;20037;-83
2023/06/01 05:28:32;;;;;;;45.80;19.52;;;;;;;21.65;55.40;100772.81;5009809;28;20037;-92
2023/06/01 05:30:58;;;;;;;52.80;19.20;;;;;;;21.84;55.43;100781.44;5010750;28;20041;-89
2023/06/01 05:33:24;;;;;;;145.60;27.20;;;;;;;21.94;55.11;100782.00;5010857;28;20056;-88
2023/06/01 05:35:49;;;;;;;47.88;19.00;;;;;;;22.11;54.85;100797.13;5009042;28;20482;-84
2023/06/01 05:38:15;;;;;;;80.65;18.58;;;;;;;22.23;54.65;100801.06;5009956;28;20069;-85
2023/06/01 05:40:41;;;;;;;46.53;18.45;;;;;;;22.30;54.84;100799.22;5010405;28;20080;-84
2023/06/01 05:43:13;;;;;;;57.85;18.70;;;;;;;22.46;54.51;100801.69;5011569;28;20049;-88
2023/06/01 05:45:39;;;;;;;56.03;19.38;;;;;;;22.51;54.50;100793.72;5012936;28;20572;-86
2023/06/01 05:48:04;;;;;;;43.72;20.05;;;;;;;22.66;54.67;100797.25;5013303;28;20038;-83
2023/06/01 05:50:30;;;;;;;38.25;18.27;;;;;;;22.76;54.58;100802.38;5008715;28;20012;-86
2023/06/01 05:52:55;;;;;;;44.42;18.70;;;;;;;22.77;54.03;100783.00;5032842;28;20074;-94
2023/06/01 05:55:21;;;;;;;47.10;17.48;;;;;;;22.94;53.80;100793.66;5023197;28;20030;-81
2023/06/01 05:57:46;;;;;;;63.60;21.23;;;;;;;22.88;53.45;100784.31;5010439;28;20387;-91
2023/06/01 06:00:13;;;;;;;37.42;18.98;;;;;;;23.06;54.20;100797.53;5009390;28;20041;-87
2023/06/01 06:02:39;;;;;;;45.80;18.75;;;;;;;23.12;54.91;100796.72;5010061;28;20033;-87
2023/06/01 06:05:05;;;;;;;42.97;18.95;;;;;;;23.20;54.84;100810.28;5008767;28;20026;-89
2023/06/01 06:07:31;;;;;;;51.10;17.60;;;;;;;23.35;54.93;100808.25;5010060;28;20033;-85
2023/06/01 06:09:57;;;;;;;55.13;19.58;;;;;;;23.34;54.72;100779.09;5009422;28;20469;-85
2023/06/01 06:12:22;;;;;;;44.80;18.92;;;;;;;23.56;54.44;100805.44;5009821;28;20099;-84
2023/06/01 06:14:48;;;;;;;34.67;17.98;;;;;;;23.49;54.29;100799.06;5009050;28;20449;-87
2023/06/01 06:17:15;;;;;;;48.85;17.17;;;;;;;23.47;54.19;100790.19;5008675;28;20037;-84
2023/06/01 06:19:43;;;;;;;45.05;16.45;;;;;;;23.59;54.13;100812.41;5008972;28;20485;-85
2023/06/01 06:22:09;;;;;;;49.72;15.65;;;;;;;23.63;54.30;100806.31;5012126;28;20498;-84
2023/06/01 06:24:34;;;;;;;45.00;16.33;;;;;;;23.62;54.00;100792.78;5013803;28;20152;-86
2023/06/01 06:27:00;;;;;;;45.92;16.17;;;;;;;23.72;53.69;100809.72;5012219;28;20026;-84
2023/06/01 06:29:25;;;;;;;45.88;15.32;;;;;;;23.65;53.64;100793.22;5011775;28;20061;-82
2023/06/01 06:31:50;;;;;;;36.95;16.58;;;;;;;23.77;53.88;100804.44;5011521;28;20022;-83
2023/06/01 06:34:16;;;;;;;52.97;17.48;;;;;;;23.80;54.25;100817.78;5012011;28;20045;-82
2023/06/01 06:36:41;;;;;;;48.75;18.42;;;;;;;23.82;53.96;100808.28;5012122;28;20030;-80
2023/06/01 06:39:07;;;;;;;34.47;16.58;;;;;;;23.77;54.48;100791.56;4994710;28;20052;-80
2023/06/01 06:41:32;;;;;;;37.10;17.23;;;;;;;24.08;53.97;100812.16;5012639;28;20030;-81
2023/06/01 06:43:58;;;;;;;49.67;18.60;;;;;;;24.16;54.07;100803.72;5011361;28;20049;-86
2023/06/01 06:46:23;;;;;;;43.03;21.58;;;;;;;24.38;53.58;100832.75;5015661;28;20049;-81
2023/06/01 06:48:49;;;;;;;33.63;18.10;;;;;;;24.50;53.35;100819.22;5016364;28;20092;-80
2023/06/01 06:51:14;;;;;;;32.20;17.77;;;;;;;24.50;53.19;100802.72;5012978;28;20504;-82
2023/06/01 06:53:40;;;;;;;38.95;19.70;;;;;;;24.67;53.10;100815.84;5012414;28;20493;-81
2023/06/01 06:56:05;;;;;;;56.88;19.80;;;;;;;24.76;53.09;100822.84;5017224;28;20026;-81
2023/06/01 06:58:31;;;;;;;48.20;21.27;;;;;;;24.90;52.95;100818.19;5018976;28;20089;-85
2023/06/01 07:00:56;;;;;;;47.95;22.38;;;;;;;24.97;52.48;100823.69;5012863;28;20030;-88
2023/06/01 07:03:22;;;;;;;45.28;22.27;;;;;;;25.06;52.44;100812.22;4995017;28;20073;-89
2023/06/01 07:05:47;;;;;;;60.47;22.10;;;;;;;25.10;51.49;100808.00;5019680;28;20022;-87
2023/06/01 07:08:14;;;;;;;55.13;21.13;;;;;;;25.18;51.74;100806.91;5031279;28;20025;-87
2023/06/01 07:10:40;;;;;;;44.33;21.38;;;;;;;25.03;51.60;100792.56;5031819;28;20091;-88
2023/06/01 07:13:05;;;;;;;42.50;21.02;;;;;;;25.22;50.98;100817.28;5031759;28;20038;-89
2023/06/01 07:15:30;;;;;;;41.45;18.73;;;;;;;25.32;50.94;100820.41;5033267;28;20025;-88
2023/06/01 07:17:56;;;;;;;51.30;20.05;;;;;;;25.38;50.16;100794.75;5035251;28;20025;-90
2023/06/01 07:20:21;;;;;;;45.25;18.40;;;;;;;25.51;49.64;100807.69;5041904;28;20101;-84
2023/06/01 07:22:47;;;;;;;41.95;17.67;;;;;;;25.60;48.34;100814.63;5036803;28;20040;-87
2023/06/01 07:25:13;;;;;;;38.00;18.02;;;;;;;25.70;47.74;100805.91;5032949;28;20029;-88
2023/06/01 07:27:43;;;;;;;44.15;14.88;;;;;;;25.70;46.23;100800.41;5032974;28;20072;-88
2023/06/01 07:30:10;;;;;;;27.95;12.65;;;;;;;25.83;45.45;100803.94;5014274;28;20128;-87
2023/06/01 07:32:35;;;;;;;21.77;11.07;;;;;;;25.86;44.19;100798.00;5031077;28;20030;-87
2023/06/01 07:35:01;;;;;;;30.75;11.43;;;;;;;25.93;43.72;100801.53;5032553;28;20028;-86
2023/06/01 07:37:27;;;;;;;34.08;12.73;;;;;;;26.15;43.25;100813.09;5036387;28;20034;-88
2023/06/01 07:39:56;;;;;;;36.40;12.35;;;;;;;26.25;43.47;100798.84;5035490;28;20030;-88
2023/06/01 07:42:21;;;;;;;34.00;15.02;;;;;;;26.25;42.88;100796.94;5046811;28;20025;-87
2023/06/01 07:44:48;;;;;;;31.23;13.13;;;;;;;26.32;42.31;100788.63;5055762;28;20061;-87
2023/06/01 07:47:13;;;;;;;24.80;10.35;;;;;;;26.52;42.48;100811.34;5045659;28;20121;-87
2023/06/01 07:49:39;;;;;;;26.58;8.77;;;;;;;26.60;42.39;100805.59;5014871;28;20116;-87
2023/06/01 07:52:05;;;;;;;27.00;8.10;;;;;;;26.67;41.65;100808.25;5032236;28;20405;-87
2023/06/01 07:54:31;;;;;;;22.23;9.73;;;;;;;26.81;42.06;100804.38;5032621;28;20049;-88
2023/06/01 07:56:57;;;;;;;29.38;11.70;;;;;;;26.88;41.30;100797.69;5033641;28;20038;-88
2023/06/01 07:59:27;;;;;;;25.38;8.80;;;;;;;26.97;40.58;100804.59;5032082;28;20026;-88
2023/06/01 08:01:54;;;;;;;21.65;8.45;;;;;;;26.93;40.41;100797.88;5036246;28;20037;-86
2023/06/01 08:04:22;;;;;;;15.18;6.60;;;;;;;27.07;39.91;100793.03;5032714;28;20473;-88
2023/06/01 08:06:53;;;;;;;19.17;7.30;;;;;;;27.03;39.42;100778.03;5031850;28;20033;-87
2023/06/01 08:09:23;;;;;;;19.75;5.88;;;;;;;27.36;38.75;100800.59;5032024;28;20570;-88
2023/06/01 08:11:50;;;;;;;19.10;5.53;;;;;;;27.37;38.23;100771.03;5014502;28;20470;-88
2023/06/01 08:14:16;;;;;;;17.20;6.20;;;;;;;27.48;38.53;100773.91;5034637;28;20095;-87
2023/06/01 08:16:42;;;;;;;18.25;6.65;;;;;;;27.72;38.18;100788.69;5032836;28;20037;-88
2023/06/01 08:19:08;;;;;;;23.38;6.00;;;;;;;27.84;36.90;100785.97;5035197;28;20018;-86
2023/06/01 08:21:34;;;;;;;14.40;4.88;;;;;;;28.10;35.57;100774.59;5031589;28;20044;-87
2023/06/01 08:24:01;;;;;;;12.60;5.00;;;;;;;28.23;36.02;100782.66;5014256;28;20369;-87
2023/06/01 08:26:28;;;;;;;11.90;4.68;;;;;;;28.29;34.49;100780.84;5014142;28;20029;-88
2023/06/01 08:28:53;;;;;;;9.60;5.22;;;;;;;28.07;34.86;100761.22;5031693;28;20465;-87
2023/06/01 08:31:24;;;;;;;15.68;5.20;;;;;;;28.22;34.94;100781.00;5031704;28;20121;-88
2023/06/01 08:33:53;;;;;;;26.35;6.55;;;;;;;28.18;35.18;100778.91;5035370;28;20566;-88
2023/06/01 08:36:19;;;;;;;11.93;5.22;;;;;;;28.09;36.39;100779.25;5035275;28;20037;-87
2023/06/01 08:38:45;;;;;;;96.90;11.90;;;;;;;27.69;40.97;100769.81;5041972;28;20029;-86
2023/06/01 08:41:37;;;;;;;41.90;8.45;;;;;;;27.51;43.11;100762.41;5055649;28;20029;-88
2023/06/01 08:44:04;;;;;;;26.00;7.28;;;;;;;27.17;44.47;100775.94;5043902;28;20041;-88
2023/06/01 08:46:34;;;;;;;18.30;7.53;;;;;;;27.15;44.61;100772.59;5031562;28;20038;-87
2023/06/01 08:48:59;;;;;;;27.55;8.15;;;;;;;26.84;46.39;100756.97;5031831;28;20044;-87
2023/06/01 08:51:25;;;;;;;18.15;7.90;;;;;;;26.57;47.08;100736.22;5033907;28;20405;-87
2023/06/01 08:53:53;;;;;;;29.58;8.38;;;;;;;26.46;48.01;100779.16;5032419;28;20123;-87
2023/06/01 08:56:21;;;;;;;50.05;9.38;;;;;;;26.23;47.19;100778.94;5033123;28;20548;-87
2023/06/01 08:58:47;;;;;;;31.30;6.97;;;;;;;26.07;47.15;100771.16;5032397;28;20037;-89
2023/06/01 09:01:21;;;;;;;43.78;9.73;;;;;;;25.77;46.99;100757.13;5031932;28;20021;-88
2023/06/01 09:03:50;;;;;;;21.35;7.75;;;;;;;25.71;47.36;100771.78;5031246;28;20025;-87
2023/06/01 09:06:16;;;;;;;25.42;6.45;;;;;;;25.75;47.90;100775.78;5031664;28;20057;-88
2023/06/01 09:08:41;;;;;;;26.80;8.65;;;;;;;25.55;47.48;100769.53;5030549;28;20068;-89
2023/06/01 09:11:07;;;;;;;29.02;7.70;;;;;;;25.54;46.96;100776.09;5031046;28;20022;-88
2023/06/01 09:13:37;;;;;;;46.03;8.93;;;;;;;25.47;46.88;100756.00;5032025;28;20041;-88
2023/06/01 09:16:03;;;;;;;31.48;8.38;;;;;;;25.58;45.99;100758.06;5033356;28;20025;-88
2023/06/01 09:18:28;;;;;;;66.60;11.40;;;;;;;25.69;45.70;100766.50;5031702;28;20053;-88
2023/06/01 09:20:56;;;;;;;20.92;7.28;;;;;;;25.56;44.11;100744.53;5034491;28;20034;-88
2023/06/01 09:23:26;;;;;;;62.85;10.30;;;;;;;25.89;44.45;100777.41;5017952;28;20436;-84
2023/06/01 09:26:06;;;;;;;74.30;9.27;;;;;;;25.99;44.44;100775.84;5044695;28;20025;-85
2023/06/01 09:28:53;;;;;;;45.15;8.93;;;;;;;25.92;44.29;100777.81;5019354;28;20040;-88
2023/06/01 09:31:41;;;;;;;31.00;6.70;;;;;;;25.92;43.78;100774.22;5037624;28;20025;-88
2023/06/01 09:34:11;;;;;;;21.80;6.18;;;;;;;25.98;44.64;100771.44;5020050;28;20025;-88
2023/06/01 09:36:36;;;;;;;26.52;6.25;;;;;;;25.95;45.53;100755.31;5050535;28;20081;-86
2023/06/01 09:39:07;;;;;;;35.85;6.43;;;;;;;25.99;44.01;100751.03;5053421;28;20021;-89
2023/06/01 09:41:48;;;;;;;20.80;5.65;;;;;;;26.33;45.25;100774.59;5037496;28;20109;-88
2023/06/01 09:44:33;;;;;;;28.33;7.55;;;;;;;26.47;43.44;100769.81;5055644;28;20041;-89
2023/06/01 09:47:01;;;;;;;29.50;7.15;;;;;;;26.46;45.29;100762.59;5055567;28;20046;-86
2023/06/01 09:49:29;;;;;;;18.27;6.72;;;;;;;26.52;44.60;100746.00;5032898;28;20034;-84
2023/06/01 09:52:03;;;;;;;14.13;5.78;;;;;;;26.52;39.88;100767.22;5041298;28;20025;-86
2023/06/01 09:54:30;;;;;;;28.67;5.53;;;;;;;26.36;38.04;100752.06;5032488;28;20030;-87
2023/06/01 09:56:57;;;;;;;32.05;9.27;;;;;;;26.26;38.78;100734.34;5037260;28;20580;-87
2023/06/01 09:59:24;;;;;;;28.10;6.78;;;;;;;26.28;38.98;100749.59;5036620;28;20029;-87
2023/06/01 10:01:52;;;;;;;20.08;6.18;;;;;;;26.29;39.80;100756.81;5017107;28;20034;-88
2023/06/01 10:04:22;;;;;;;21.40;6.40;;;;;;;26.36;38.62;100762.28;5033429;28;20029;-90
2023/06/01 10:06:51;;;;;;;34.65;7.70;;;;;;;26.45;38.88;100760.94;5035985;28;20101;-86
2023/06/01 10:09:19;;;;;;;22.67;6.13;;;;;;;26.52;38.56;100751.50;5038360;28;20033;-88
2023/06/01 10:11:46;;;;;;;47.53;7.57;;;;;;;26.65;39.55;100744.19;5011247;28;20589;-87
2023/06/01 10:14:12;;;;;;;31.65;8.80;;;;;;;26.82;39.31;100742.53;5011766;28;20193;-87
2023/06/01 10:16:40;;;;;;;25.13;6.40;;;;;;;27.08;37.66;100755.25;5011563;28;20044;-87
2023/06/01 10:19:07;;;;;;;48.17;9.50;;;;;;;27.26;37.42;100746.94;5011605;28;20061;-87
2023/06/01 10:21:33;;;;;;;76.00;8.85;;;;;;;27.38;37.15;100745.09;5011813;28;20046;-88
2023/06/01 10:23:59;;;;;;;31.05;7.60;;;;;;;27.40;37.92;100738.25;5022496;28;20022;-87
2023/06/01 10:26:27;;;;;;;25.90;6.47;;;;;;;27.51;37.01;100739.44;5012619;28;20136;-86
2023/06/01 10:28:55;;;;;;;16.63;5.88;;;;;;;27.75;35.83;100723.81;5014615;28;20509;-86
2023/06/01 10:31:41;;;;;;;15.32;6.28;;;;;;;28.03;35.23;100738.69;5013560;28;20042;-87
2023/06/01 10:34:09;;;;;;;29.70;5.78;;;;;;;28.27;33.89;100720.25;5036269;28;20103;-87
2023/06/01 10:37:03;;;;;;;20.42;5.30;;;;;;;28.57;33.45;100734.00;5036341;28;20038;-88
2023/06/01 10:39:30;;;;;;;27.13;6.28;;;;;;;28.68;33.23;100740.66;4933834;29;20044;-88
2023/06/01 10:41:58;;;;;;;22.08;6.57;;;;;;;28.63;32.71;100692.34;4934197;29;20067;-87
2023/06/01 10:44:41;;;;;;;33.25;7.05;;;;;;;28.86;33.25;100722.00;4932497;29;20074;-86
2023/06/01 10:47:32;;;;;;;18.25;6.15;;;;;;;28.79;32.49;100724.03;4933189;29;20583;-87
2023/06/01 10:49:58;;;;;;;16.10;4.78;;;;;;;28.57;31.64;100722.91;4936025;29;20054;-86
2023/06/01 10:52:33;;;;;;;31.27;5.57;;;;;;;28.26;32.34;100707.50;4935263;29;20035;-87
2023/06/01 10:55:11;;;;;;;16.05;5.32;;;;;;;28.31;32.57;100717.84;4934016;29;20075;-86
2023/06/01 10:57:40;;;;;;;19.38;7.30;;;;;;;28.37;32.27;100708.59;4933442;29;20039;-86
2023/06/01 11:00:26;;;;;;;13.35;4.68;;;;;;;28.30;33.23;100696.78;4935699;29;20534;-87
2023/06/01 11:03:12;;;;;;;28.08;5.72;;;;;;;28.35;32.98;100706.06;4934413;29;20127;-87
2023/06/01 11:05:39;;;;;;;20.13;5.63;;;;;;;28.46;32.32;100693.31;4936642;29;20050;-89
2023/06/01 11:08:06;;;;;;;12.23;4.65;;;;;;;28.46;32.70;100683.09;4939357;29;20062;-88
2023/06/01 11:10:53;;;;;;;29.08;6.43;;;;;;;28.60;32.69;100700.28;4941443;29;20630;-88
2023/06/01 11:13:33;;;;;;;45.90;7.57;;;;;;;28.58;34.25;100699.69;4939759;29;20082;-88
2023/06/01 11:16:12;;;;;;;11.20;4.30;;;;;;;28.55;33.64;100702.94;4979356;28;20117;-88